aviador You're here:

PALG Decoded Metar

KALSKAG in AK, USA
Report Time2018-01-20 04:56:00
UTC Time2018-01-20 05:09:38
Flight Rules vfr VFR
Wind280° at 03 kt
W.Decomp.*RWY 24: 2.8 kt HW 1.1 kt RCW
W.Rank280° ranks 18
Current wind is below 280° avg. (5.2)
Visibility9999 m
Phenomena:N/A
Clouds:N/A
Expected CloudBase > 1,600 ft AGL from Temp-Dew spread
CeilingNone
Temp-20°C (ISA -35)
Dew Point-24°C (71% RH)
AAT-24.8°C
QNH1023 hPa
Density Alt-4,747 ft
Elevation56 ft
Report Wrong Elevation
Raw Report
PALG 200456Z AUTO 28003KT 10SM CLR M20/M24 A3022 RMK AO2 SLP237
T12001239 FZRANO=

Extra information for PALG:More info

Metar Taf Metar & Taf Last 4 Metars F.Rules Stats Wind Profile Meteogram Temp Stats Airport Information Weather charts Add Link Nearby VenuesMetar ALERT Operation Metar Decoded Social comments

AIRNAV info for PALG